Time;durP1;ratioP1;P1;durP2;ratioP2;P2;SDS_P1;SDS_P2;PMS_P1;PMS_P2;Temp;Humidity;BMP_temperature;BMP_pressure;BME280_temperature;BME280_humidity;BME280_pressure;Samples;Min_cycle;Max_cycle;Signal;HPM_P1;HPM_P2
2022/10/31 00:00:18;;;;;;;;;7.33;7.33;;;;;17.88;65.94;-19686.44;4995562;27;45496;-79
2022/10/31 00:02:43;;;;;;;;;7.33;5.67;;;;;17.89;66.42;-19686.84;4995982;27;45500;-79
2022/10/31 00:05:09;;;;;;;;;5.00;5.00;;;;;17.67;66.24;-19681.09;4996478;27;45334;-79
2022/10/31 00:07:35;;;;;;;;;10.33;5.67;;;;;17.65;65.90;-19680.41;4995098;27;45298;-71
2022/10/31 00:10:00;;;;;;;;;6.00;6.00;;;;;17.60;66.48;-19679.22;4995938;27;45269;-71
2022/10/31 00:12:27;;;;;;;;;10.00;6.00;;;;;17.76;66.01;-19683.38;4996073;27;45491;-71
2022/10/31 00:14:52;;;;;;;;;8.00;6.33;;;;;17.80;66.30;-19684.44;4996162;27;45325;-72
2022/10/31 00:17:18;;;;;;;;;7.67;7.67;;;;;17.79;66.19;-19684.16;4978410;28;45687;-72
2022/10/31 00:19:43;;;;;;;;;6.67;6.00;;;;;17.77;66.74;-19683.50;4996051;27;45999;-71
2022/10/31 00:22:08;;;;;;;;;5.67;4.00;;;;;17.76;66.43;-19683.22;4961873;28;45549;-71
2022/10/31 00:24:34;;;;;;;;;5.00;5.00;;;;;17.74;66.48;-19682.81;4995302;27;45648;-71
2022/10/31 00:26:59;;;;;;;;;6.00;6.00;;;;;17.59;66.37;-19678.81;4962077;28;45410;-72
2022/10/31 00:29:24;;;;;;;;;7.67;6.00;;;;;17.71;66.02;-19682.03;4978381;28;46995;-72
2022/10/31 00:31:51;;;;;;;;;5.00;5.00;;;;;17.67;66.22;-19681.09;4995876;27;45301;-71
2022/10/31 00:34:18;;;;;;;;;6.00;6.00;;;;;17.51;66.81;-19676.94;4995798;27;45473;-72
2022/10/31 00:36:43;;;;;;;;;7.33;6.00;;;;;17.66;66.05;-19680.69;4995605;27;45703;-71
2022/10/31 00:39:09;;;;;;;;;8.00;8.00;;;;;17.46;66.24;-19675.47;4995312;27;47029;-72
2022/10/31 00:41:34;;;;;;;;;8.67;8.00;;;;;17.63;66.52;-19680.03;4995495;27;45354;-71
2022/10/31 00:43:59;;;;;;;;;9.33;6.67;;;;;17.59;66.91;-19678.94;4995700;27;45414;-71
2022/10/31 00:46:25;;;;;;;;;5.67;5.67;;;;;17.59;66.64;-19678.81;4995835;27;45311;-71
2022/10/31 00:48:50;;;;;;;;;5.33;5.33;;;;;17.57;66.44;-19678.28;4995416;27;45346;-72
2022/10/31 00:51:15;;;;;;;;;7.67;6.00;;;;;17.55;66.89;-19677.75;4995843;27;45358;-71
2022/10/31 00:53:41;;;;;;;;;6.00;6.00;;;;;17.48;66.59;-19676.13;4995307;27;45385;-71
2022/10/31 00:56:06;;;;;;;;;8.00;8.00;;;;;17.52;67.19;-19677.06;4995829;27;45639;-72
2022/10/31 00:58:32;;;;;;;;;7.33;7.33;;;;;17.45;66.77;-19675.34;4995738;27;46386;-71
2022/10/31 01:00:58;;;;;;;;;9.33;7.67;;;;;17.30;66.67;-19671.31;4995410;27;45550;-71
2022/10/31 01:03:28;;;;;;;;;8.00;7.67;;;;;17.45;66.71;-19675.34;4978151;28;45531;-71
2022/10/31 01:05:58;;;;;;;;;10.67;8.00;;;;;17.49;66.93;-19676.41;4994060;27;45441;-72
2022/10/31 01:08:23;;;;;;;;;9.00;7.00;;;;;17.50;67.23;-19676.53;4995461;27;45336;-79
2022/10/31 01:11:00;;;;;;;;;11.00;7.33;;;;;17.43;67.10;-19674.66;4994965;27;45231;-79
2022/10/31 01:13:26;;;;;;;;;4.33;4.33;;;;;17.45;66.87;-19675.34;4995714;27;45416;-79
2022/10/31 01:15:56;;;;;;;;;9.67;8.00;;;;;17.53;67.23;-19677.34;4995443;27;45827;-79
2022/10/31 01:18:22;;;;;;;;;10.00;8.33;;;;;17.56;67.75;-19678.16;4995163;27;47263;-79
2022/10/31 01:21:02;;;;;;;;;8.00;8.00;;;;;17.58;67.50;-19678.53;4978240;28;45297;-80
2022/10/31 01:23:29;;;;;;;;;9.00;8.67;;;;;17.62;67.72;-19679.63;4994952;27;45701;-79
2022/10/31 01:26:21;;;;;;;;;5.67;5.67;;;;;17.65;67.38;-19680.41;4995660;27;45434;-79
2022/10/31 01:28:52;;;;;;;;;7.67;7.67;;;;;17.56;67.71;-19678.16;4995347;27;45621;-79
2022/10/31 01:31:20;;;;;;;;;7.67;7.67;;;;;17.55;67.58;-19677.88;4995319;27;45424;-79
2022/10/31 01:33:46;;;;;;;;;8.67;8.67;;;;;17.72;67.73;-19682.28;4977699;28;45444;-79
2022/10/31 01:36:18;;;;;;;;;8.00;8.00;;;;;17.73;67.42;-19682.56;4974374;27;45619;-79
2022/10/31 01:38:43;;;;;;;;;5.67;5.67;;;;;17.72;67.89;-19682.44;4995210;27;45331;-79
2022/10/31 01:41:12;;;;;;;;;8.00;6.00;;;;;17.76;67.65;-19683.22;4995036;27;45409;-79
2022/10/31 01:44:04;;;;;;;;;8.33;7.33;;;;;17.77;67.90;-19683.50;4994970;27;45390;-79
2022/10/31 01:46:38;;;;;;;;;9.33;7.33;;;;;17.78;68.19;-19683.91;5035160;28;45501;-79
2022/10/31 01:49:09;;;;;;;;;9.33;7.67;;;;;17.79;67.59;-19684.16;5018220;28;47087;-79
2022/10/31 01:51:42;;;;;;;;;7.67;6.00;;;;;17.80;68.03;-19684.44;5034750;28;45445;-79
2022/10/31 01:54:12;;;;;;;;;9.33;7.67;;;;;17.77;67.99;-19683.63;5035276;28;45478;-79
2022/10/31 01:56:42;;;;;;;;;8.67;7.33;;;;;17.83;67.80;-19685.09;5035583;28;45457;-80
2022/10/31 01:59:11;;;;;;;;;9.00;8.67;;;;;17.84;68.17;-19685.38;5035234;28;45454;-79
2022/10/31 02:01:38;;;;;;;;;12.33;10.00;;;;;17.80;68.30;-19684.31;5035084;28;45367;-79
2022/10/31 02:04:04;;;;;;;;;11.00;8.33;;;;;17.78;68.33;-19683.78;5034734;28;46233;-79
2022/10/31 02:06:37;;;;;;;;;10.67;8.00;;;;;17.85;68.41;-19685.78;5035285;28;45462;-79
2022/10/31 02:09:05;;;;;;;;;11.00;9.67;;;;;17.86;68.17;-19686.03;5034894;28;45687;-72
2022/10/31 02:11:34;;;;;;;;;9.67;9.67;;;;;17.76;68.23;-19683.22;5034877;28;45389;-72
2022/10/31 02:14:01;;;;;;;;;9.33;8.33;;;;;17.86;68.23;-19686.03;5034810;28;45446;-72
2022/10/31 02:16:27;;;;;;;;;11.33;9.67;;;;;17.66;68.53;-19680.69;5035065;28;46151;-72
2022/10/31 02:18:53;;;;;;;;;5.00;3.00;;;;;17.77;68.49;-19683.63;5034351;28;46207;-72
2022/10/31 02:21:30;;;;;;;;;10.00;9.67;;;;;17.89;68.79;-19686.72;5015179;28;45394;-72
2022/10/31 02:24:21;;;;;;;;;9.67;8.33;;;;;17.88;68.65;-19686.56;5002774;27;45446;-72
2022/10/31 02:27:21;;;;;;;;;10.00;10.00;;;;;17.92;68.63;-19687.66;4981854;27;45506;-71
2022/10/31 02:30:09;;;;;;;;;14.00;11.67;;;;;17.89;68.63;-19686.72;4994093;27;47362;-71
2022/10/31 02:32:46;;;;;;;;;10.33;9.67;;;;;17.68;68.84;-19681.22;4994410;27;45408;-71
2022/10/31 02:35:26;;;;;;;;;12.00;12.00;;;;;18.00;68.67;-19689.53;4992492;27;45572;-71
2022/10/31 02:38:00;;;;;;;;;15.33;15.33;;;;;17.96;68.69;-19688.59;4994196;27;45834;-72
2022/10/31 02:40:29;;;;;;;;;17.33;16.00;;;;;18.03;69.17;-19690.31;4993393;27;45515;-72
2022/10/31 02:42:55;;;;;;;;;15.00;15.00;;;;;18.04;68.86;-19690.59;4977340;28;45725;-72
2022/10/31 02:45:29;;;;;;;;;19.67;16.00;;;;;18.03;69.12;-19690.31;4992541;27;45423;-72
2022/10/31 02:48:01;;;;;;;;;16.00;16.00;;;;;17.86;69.25;-19685.91;4988526;28;45610;-71
2022/10/31 02:50:33;;;;;;;;;17.00;16.33;;;;;17.90;69.17;-19686.97;4993408;27;45361;-71
2022/10/31 02:52:58;;;;;;;;;13.33;13.33;;;;;17.90;69.14;-19687.13;4992197;27;45433;-72
2022/10/31 02:55:26;;;;;;;;;14.67;14.67;;;;;18.10;69.03;-19692.19;4992131;27;45372;-72
2022/10/31 02:58:01;;;;;;;;;17.00;13.33;;;;;17.87;69.16;-19686.19;4984027;27;45354;-71
2022/10/31 03:00:27;;;;;;;;;17.33;15.33;;;;;18.10;69.05;-19692.34;4993617;27;46971;-71
2022/10/31 03:03:12;;;;;;;;;14.33;11.67;;;;;18.10;69.02;-19692.34;4983418;27;45768;-71
2022/10/31 03:05:41;;;;;;;;;17.00;15.33;;;;;18.11;69.04;-19692.47;4993567;28;45579;-71
2022/10/31 03:08:33;;;;;;;;;19.67;16.00;;;;;18.07;69.25;-19691.53;4976376;27;45325;-71
2022/10/31 03:11:04;;;;;;;;;17.00;16.33;;;;;17.97;68.93;-19688.72;4991823;27;46147;-71
2022/10/31 03:13:33;;;;;;;;;14.33;14.33;;;;;18.11;69.34;-19692.59;4993692;28;45380;-72
2022/10/31 03:16:21;;;;;;;;;16.67;15.33;;;;;18.11;68.97;-19692.59;4993561;27;45470;-71
2022/10/31 03:18:55;;;;;;;;;16.33;14.33;;;;;18.12;69.47;-19692.72;4996080;27;45405;-72
2022/10/31 03:21:29;;;;;;;;;13.67;13.67;;;;;17.90;69.38;-19687.13;4993694;27;46299;-71
2022/10/31 03:23:58;;;;;;;;;20.00;16.67;;;;;18.01;69.52;-19689.94;4993247;27;45408;-71
2022/10/31 03:26:24;;;;;;;;;13.33;13.33;;;;;18.12;69.50;-19692.72;4982127;28;45436;-71
2022/10/31 03:29:06;;;;;;;;;17.33;15.00;;;;;18.12;69.11;-19692.72;4993766;27;45554;-71
2022/10/31 03:31:40;;;;;;;;;16.00;16.00;;;;;18.13;69.29;-19693.00;4992954;27;46328;-71
2022/10/31 03:34:07;;;;;;;;;17.33;14.33;;;;;18.15;69.39;-19693.53;4992920;28;45626;-71
2022/10/31 03:36:37;;;;;;;;;18.00;17.00;;;;;18.11;69.11;-19692.59;4978344;27;45447;-71
2022/10/31 03:39:06;;;;;;;;;18.67;18.33;;;;;18.13;69.09;-19693.00;4979832;28;45372;-72
2022/10/31 03:41:39;;;;;;;;;13.00;11.67;;;;;18.17;68.75;-19694.06;4996026;27;45662;-71
2022/10/31 03:44:10;;;;;;;;;22.67;19.00;;;;;18.09;69.12;-19692.06;4978210;28;45795;-71
2022/10/31 03:46:36;;;;;;;;;22.00;18.67;;;;;18.04;68.75;-19690.72;4996063;27;45318;-72
2022/10/31 03:49:03;;;;;;;;;20.33;19.00;;;;;18.21;68.76;-19695.00;4979187;28;45544;-72
2022/10/31 03:51:57;;;;;;;;;21.33;19.00;;;;;18.22;68.36;-19695.41;4995432;27;45425;-71
2022/10/31 03:54:44;;;;;;;;;18.67;17.33;;;;;18.19;68.63;-19694.59;4996431;27;45725;-72
2022/10/31 03:57:32;;;;;;;;;23.33;20.00;;;;;18.20;68.39;-19694.75;4985806;27;45385;-72
2022/10/31 04:00:10;;;;;;;;;25.33;20.67;;;;;18.21;68.72;-19695.00;4996185;27;45356;-71
2022/10/31 04:02:40;;;;;;;;;22.00;19.00;;;;;18.10;68.58;-19692.19;4995905;27;46207;-71
2022/10/31 04:05:08;;;;;;;;;21.33;21.00;;;;;18.22;68.56;-19695.41;4984446;27;45370;-72
2022/10/31 04:07:39;;;;;;;;;19.67;17.67;;;;;18.23;68.49;-19695.66;4993771;27;45388;-72
2022/10/31 04:10:09;;;;;;;;;18.67;18.67;;;;;18.25;68.84;-19696.06;4996485;27;45460;-72
2022/10/31 04:12:37;;;;;;;;;23.00;19.00;;;;;18.21;68.83;-19695.00;4995929;27;45496;-71
2022/10/31 04:15:06;;;;;;;;;20.00;17.33;;;;;17.86;68.54;-19686.03;4995720;27;45687;-71
2022/10/31 04:17:35;;;;;;;;;27.00;24.33;;;;;18.11;68.85;-19692.47;4978127;28;45394;-72
2022/10/31 04:20:01;;;;;;;;;17.00;16.67;;;;;18.23;68.61;-19695.66;4995031;27;45368;-72
2022/10/31 04:22:27;;;;;;;;;21.33;19.67;;;;;18.22;68.68;-19695.28;4995156;27;45994;-72
2022/10/31 04:24:52;;;;;;;;;21.67;20.33;;;;;18.22;68.88;-19695.41;4994019;28;45412;-72
2022/10/31 04:27:18;;;;;;;;;23.00;20.67;;;;;18.21;68.97;-19695.13;4996050;27;45556;-72
2022/10/31 04:29:43;;;;;;;;;17.67;17.00;;;;;18.26;69.06;-19696.34;4996049;27;45365;-72
2022/10/31 04:32:09;;;;;;;;;24.00;21.33;;;;;18.08;69.00;-19691.78;4995381;27;45615;-72
2022/10/31 04:34:35;;;;;;;;;23.67;20.67;;;;;18.27;68.91;-19696.75;4996088;27;45388;-71
2022/10/31 04:37:00;;;;;;;;;22.67;17.33;;;;;18.28;68.68;-19697.00;4982844;27;45392;-72
2022/10/31 04:39:25;;;;;;;;;20.33;20.33;;;;;18.28;68.87;-19696.88;4996091;27;45294;-71
2022/10/31 04:41:51;;;;;;;;;21.33;15.00;;;;;18.27;69.23;-19696.75;4995416;27;45416;-72
2022/10/31 04:44:16;;;;;;;;;21.67;19.00;;;;;18.25;68.78;-19696.22;4993461;27;45510;-72
2022/10/31 04:46:42;;;;;;;;;19.00;18.00;;;;;18.32;69.10;-19697.94;4977851;27;45559;-72
2022/10/31 04:49:07;;;;;;;;;23.67;19.67;;;;;18.32;68.72;-19697.94;4995618;27;45544;-71
2022/10/31 04:51:33;;;;;;;;;23.00;20.33;;;;;18.37;68.91;-19699.16;4977712;27;46158;-71
2022/10/31 04:53:58;;;;;;;;;20.33;16.00;;;;;18.34;68.99;-19698.47;4984039;28;45453;-71
2022/10/31 04:56:24;;;;;;;;;16.33;16.33;;;;;18.48;68.52;-19702.22;4994554;27;45583;-71
2022/10/31 04:58:50;;;;;;;;;19.33;17.33;;;;;18.50;68.33;-19702.63;4978271;28;45422;-71
2022/10/31 05:01:15;;;;;;;;;22.00;19.00;;;;;18.49;68.77;-19702.47;4995310;27;46446;-72
2022/10/31 05:03:41;;;;;;;;;19.00;19.00;;;;;18.47;68.68;-19701.81;4968388;28;45460;-71
2022/10/31 05:06:07;;;;;;;;;20.00;19.00;;;;;18.20;68.85;-19694.88;4991474;27;45858;-72
2022/10/31 05:08:33;;;;;;;;;24.33;21.00;;;;;18.48;68.52;-19702.22;4996060;27;45445;-79
2022/10/31 05:11:02;;;;;;;;;20.00;19.67;;;;;18.44;68.79;-19701.16;4995198;27;45414;-79
2022/10/31 05:13:29;;;;;;;;;18.67;17.00;;;;;18.53;68.74;-19703.41;4993234;27;46155;-79
2022/10/31 05:15:55;;;;;;;;;18.00;17.00;;;;;18.49;68.47;-19702.34;4992839;27;45391;-79
2022/10/31 05:18:20;;;;;;;;;21.67;19.33;;;;;18.48;68.97;-19702.09;4995769;27;45394;-79
2022/10/31 05:20:46;;;;;;;;;20.67;19.67;;;;;18.52;69.04;-19703.16;4995113;27;46150;-79
2022/10/31 05:23:12;;;;;;;;;18.33;17.00;;;;;18.50;68.43;-19702.75;4995261;27;45417;-79
2022/10/31 05:25:37;;;;;;;;;20.67;19.33;;;;;18.50;68.80;-19702.63;4994863;27;45311;-79
2022/10/31 05:28:03;;;;;;;;;26.33;20.33;;;;;18.49;68.91;-19702.34;4994920;27;45340;-79
2022/10/31 05:30:31;;;;;;;;;19.00;18.00;;;;;18.52;68.40;-19703.28;4994870;27;45466;-79
2022/10/31 05:32:56;;;;;;;;;19.67;18.67;;;;;18.49;68.69;-19702.47;4995377;27;45416;-79
2022/10/31 05:35:24;;;;;;;;;19.33;19.00;;;;;18.46;68.52;-19701.56;4994838;27;45294;-79
2022/10/31 05:37:50;;;;;;;;;22.67;21.33;;;;;18.25;69.03;-19696.06;4985840;27;45433;-79
2022/10/31 05:40:17;;;;;;;;;20.00;18.67;;;;;18.46;68.95;-19701.69;4991945;27;46189;-79
2022/10/31 05:42:43;;;;;;;;;14.33;10.67;;;;;18.37;69.29;-19699.28;4977135;28;45374;-79
2022/10/31 05:45:11;;;;;;;;;19.00;17.67;;;;;18.38;68.87;-19699.56;4989957;27;45380;-79
2022/10/31 05:47:37;;;;;;;;;19.67;18.67;;;;;18.34;69.63;-19698.47;4980454;27;45576;-79
2022/10/31 05:50:03;;;;;;;;;21.33;17.33;;;;;18.28;69.60;-19697.00;4994698;27;45368;-79
2022/10/31 05:52:29;;;;;;;;;19.33;17.67;;;;;18.33;69.20;-19698.22;4994359;27;45486;-79
2022/10/31 05:54:54;;;;;;;;;18.00;17.67;;;;;18.29;69.35;-19697.16;4994984;27;45358;-79
2022/10/31 05:57:20;;;;;;;;;17.00;16.67;;;;;18.14;69.66;-19693.25;4994657;28;45590;-79
2022/10/31 05:59:45;;;;;;;;;16.00;14.67;;;;;18.35;69.56;-19698.75;4994311;27;46218;-79
2022/10/31 06:02:11;;;;;;;;;16.00;14.67;;;;;18.31;69.08;-19697.69;4994657;27;45356;-79
2022/10/31 06:04:36;;;;;;;;;17.00;17.00;;;;;18.38;69.35;-19699.41;4992048;28;45438;-79
2022/10/31 06:07:02;;;;;;;;;17.33;13.00;;;;;18.37;69.42;-19699.28;4976984;28;45393;-79
2022/10/31 06:09:27;;;;;;;;;20.67;17.00;;;;;18.38;69.14;-19699.41;4994400;27;45921;-79
2022/10/31 06:11:52;;;;;;;;;16.67;15.33;;;;;18.38;69.72;-19699.41;4994666;27;45381;-79
2022/10/31 06:14:18;;;;;;;;;20.00;17.33;;;;;18.38;69.38;-19699.56;4994552;27;45428;-79
2022/10/31 06:16:43;;;;;;;;;16.67;16.67;;;;;18.28;69.54;-19696.88;4994867;28;45333;-79
2022/10/31 06:19:08;;;;;;;;;17.33;13.00;;;;;18.33;69.33;-19698.22;4994484;27;46054;-79
2022/10/31 06:21:34;;;;;;;;;16.00;15.00;;;;;18.32;69.69;-19697.94;4997688;27;45360;-79
2022/10/31 06:23:59;;;;;;;;;17.33;14.67;;;;;18.24;69.88;-19695.94;4994075;27;45612;-79
2022/10/31 06:26:24;;;;;;;;;19.00;16.00;;;;;18.12;69.98;-19692.72;4983345;28;45406;-79
2022/10/31 06:28:50;;;;;;;;;9.67;9.33;;;;;18.32;69.44;-19697.94;4993357;27;45387;-79
2022/10/31 06:31:15;;;;;;;;;14.33;13.67;;;;;18.27;69.96;-19696.75;4984606;27;45346;-79
2022/10/31 06:33:42;;;;;;;;;16.67;16.00;;;;;18.31;69.89;-19697.81;4989484;27;45285;-79
2022/10/31 06:36:08;;;;;;;;;19.33;17.00;;;;;18.31;69.99;-19697.81;4994878;27;45455;-79
2022/10/31 06:38:34;;;;;;;;;16.00;13.00;;;;;18.13;70.00;-19693.13;4976315;27;47406;-79
2022/10/31 06:41:04;;;;;;;;;5.33;5.33;;;;;18.32;70.18;-19698.06;4982553;28;45333;-79
2022/10/31 06:43:29;;;;;;;;;12.67;11.67;;;;;18.33;69.86;-19698.22;4992087;27;45496;-79
2022/10/31 06:45:55;;;;;;;;;11.33;9.67;;;;;18.35;70.27;-19698.88;4994534;28;45367;-79
2022/10/31 06:48:20;;;;;;;;;14.33;12.00;;;;;18.35;70.24;-19698.88;4993950;27;45378;-79
2022/10/31 06:50:45;;;;;;;;;15.67;12.00;;;;;18.35;69.96;-19698.75;4993852;27;45326;-79
2022/10/31 06:53:12;;;;;;;;;13.33;11.67;;;;;18.17;70.05;-19694.06;4994073;27;45441;-79
2022/10/31 06:55:38;;;;;;;;;15.00;14.00;;;;;18.31;70.27;-19697.81;4994208;28;45263;-79
2022/10/31 06:58:03;;;;;;;;;16.00;12.33;;;;;18.22;70.02;-19695.41;4993707;27;46094;-80
2022/10/31 07:00:30;;;;;;;;;10.67;9.67;;;;;18.28;70.15;-19697.00;4976379;28;45397;-79
2022/10/31 07:02:57;;;;;;;;;15.67;12.67;;;;;18.39;69.98;-19699.81;5043280;27;45453;-79
2022/10/31 07:05:22;;;;;;;;;14.33;12.33;;;;;18.29;70.63;-19697.16;4994516;28;45337;-79
2022/10/31 07:07:52;;;;;;;;;15.33;13.00;;;;;18.58;69.35;-19704.75;4993584;27;46835;-71
2022/10/31 07:10:17;;;;;;;;;14.33;11.67;;;;;18.44;69.66;-19701.16;4995834;27;45440;-71
2022/10/31 07:12:43;;;;;;;;;12.00;11.33;;;;;18.44;69.87;-19701.03;4995177;28;45429;-71
2022/10/31 07:15:08;;;;;;;;;11.33;11.33;;;;;18.46;70.03;-19701.56;4997316;27;45448;-71
2022/10/31 07:17:34;;;;;;;;;17.33;15.00;;;;;18.44;70.26;-19701.16;4996462;27;45435;-71
2022/10/31 07:19:59;;;;;;;;;11.33;11.33;;;;;18.47;70.12;-19701.81;4997029;27;45407;-71
2022/10/31 07:22:24;;;;;;;;;13.33;13.00;;;;;18.51;69.63;-19703.03;4996880;27;45397;-71
2022/10/31 07:24:50;;;;;;;;;11.00;9.00;;;;;18.51;69.75;-19702.88;4979347;28;45451;-71
2022/10/31 07:27:15;;;;;;;;;10.67;10.67;;;;;18.70;69.67;-19707.84;4978908;28;46174;-71
2022/10/31 07:29:41;;;;;;;;;12.67;11.00;;;;;18.64;69.59;-19706.38;4996752;27;45568;-71
2022/10/31 07:32:06;;;;;;;;;15.00;13.00;;;;;18.56;69.51;-19704.34;4996513;27;45240;-71
2022/10/31 07:34:31;;;;;;;;;13.00;12.33;;;;;18.58;69.85;-19704.63;4996958;27;45596;-71
2022/10/31 07:36:57;;;;;;;;;13.33;12.00;;;;;18.25;69.29;-19696.22;4978598;28;46723;-71
2022/10/31 07:39:22;;;;;;;;;16.67;10.67;;;;;18.60;69.21;-19705.16;4978846;28;45446;-71
2022/10/31 07:41:48;;;;;;;;;15.00;12.33;;;;;18.64;69.35;-19706.22;4978163;27;45781;-71
2022/10/31 07:44:13;;;;;;;;;18.67;14.67;;;;;18.43;69.76;-19700.75;4994883;27;45422;-71
2022/10/31 07:46:38;;;;;;;;;14.33;13.33;;;;;18.52;69.87;-19703.16;4977647;27;48285;-71
2022/10/31 07:49:04;;;;;;;;;12.33;10.67;;;;;18.67;69.59;-19707.16;4996377;27;45330;-71
2022/10/31 07:51:29;;;;;;;;;14.67;11.67;;;;;18.67;69.34;-19707.16;4996400;27;45313;-71
2022/10/31 07:53:55;;;;;;;;;18.00;13.67;;;;;18.67;69.85;-19707.03;4996595;27;45342;-71
2022/10/31 07:56:21;;;;;;;;;13.00;10.33;;;;;18.72;69.19;-19708.50;4978440;27;45438;-71
2022/10/31 07:58:46;;;;;;;;;12.67;12.00;;;;;18.60;69.21;-19705.16;4978773;28;45384;-71
2022/10/31 08:01:11;;;;;;;;;14.00;11.67;;;;;18.72;69.18;-19708.50;4978440;27;45353;-71
2022/10/31 08:03:37;;;;;;;;;10.33;9.00;;;;;18.73;69.34;-19708.63;4979082;28;45325;-71
2022/10/31 08:06:02;;;;;;;;;12.33;12.33;;;;;18.76;69.09;-19709.56;4995884;27;45624;-71
2022/10/31 08:08:28;;;;;;;;;13.67;11.33;;;;;18.79;69.12;-19710.25;4995786;27;45361;-79
2022/10/31 08:10:54;;;;;;;;;13.33;12.67;;;;;18.76;68.98;-19709.44;4983700;27;45633;-79
2022/10/31 08:13:20;;;;;;;;;12.67;11.67;;;;;18.65;69.29;-19706.63;4996630;27;45419;-79
2022/10/31 08:15:49;;;;;;;;;12.00;11.67;;;;;18.81;69.03;-19710.78;4994332;27;45382;-79
2022/10/31 08:18:15;;;;;;;;;13.67;12.67;;;;;18.82;69.48;-19711.03;4986066;27;45443;-79
2022/10/31 08:20:41;;;;;;;;;11.67;11.00;;;;;18.80;68.95;-19710.50;4995229;27;45449;-79
2022/10/31 08:23:09;;;;;;;;;13.33;12.33;;;;;18.84;69.25;-19711.44;4985414;27;45546;-80
2022/10/31 08:25:35;;;;;;;;;12.67;12.00;;;;;18.85;68.88;-19711.72;4982653;27;45640;-79
2022/10/31 08:28:00;;;;;;;;;14.67;13.00;;;;;18.88;69.44;-19712.50;4974338;28;45412;-79
2022/10/31 08:30:29;;;;;;;;;11.67;11.33;;;;;18.85;69.07;-19711.84;4979831;28;45427;-79
2022/10/31 08:33:06;;;;;;;;;13.00;13.00;;;;;18.89;69.37;-19712.78;4993271;27;45532;-79
2022/10/31 08:35:33;;;;;;;;;14.00;12.00;;;;;18.89;69.50;-19712.91;4993809;27;45307;-80
2022/10/31 08:37:58;;;;;;;;;9.00;7.00;;;;;18.92;69.37;-19713.59;4996316;27;45438;-80
2022/10/31 08:40:25;;;;;;;;;12.00;10.33;;;;;18.55;69.32;-19704.09;5022309;27;45476;-79
2022/10/31 08:43:14;;;;;;;;;12.67;12.67;;;;;18.92;69.05;-19713.59;5012004;27;45471;-79
2022/10/31 08:45:41;;;;;;;;;14.67;13.67;;;;;18.97;68.94;-19714.91;5073529;27;46516;-79
2022/10/31 08:48:10;;;;;;;;;17.00;11.67;;;;;18.85;69.05;-19711.72;5020646;27;45394;-79
2022/10/31 08:50:35;;;;;;;;;14.00;11.00;;;;;18.77;69.57;-19709.84;5047657;27;45441;-79
2022/10/31 08:53:03;;;;;;;;;15.67;12.67;;;;;19.00;69.32;-19715.59;5017882;27;45539;-79
2022/10/31 08:55:28;;;;;;;;;11.67;11.67;;;;;19.03;69.38;-19716.50;5051657;27;45493;-79
2022/10/31 08:57:56;;;;;;;;;15.67;14.33;;;;;19.23;68.99;-19721.59;5025156;27;45480;-79
2022/10/31 09:00:21;;;;;;;;;16.00;13.33;;;;;18.81;68.95;-19710.78;5011997;28;45467;-80
2022/10/31 09:02:47;;;;;;;;;10.67;10.67;;;;;18.64;68.90;-19706.38;5058481;27;45429;-79
2022/10/31 09:05:12;;;;;;;;;12.33;11.33;;;;;19.29;68.54;-19723.31;5005882;27;46237;-80
2022/10/31 09:07:37;;;;;;;;;11.00;11.00;;;;;19.34;68.34;-19724.53;5048274;27;45776;-80
2022/10/31 09:10:03;;;;;;;;;16.67;14.33;;;;;19.47;68.54;-19728.00;4991470;28;45463;-79
2022/10/31 09:12:28;;;;;;;;;19.00;15.00;;;;;19.53;68.32;-19729.47;5015065;27;45478;-79
2022/10/31 09:14:54;;;;;;;;;11.33;11.33;;;;;19.60;67.86;-19731.34;5032873;27;45558;-79
2022/10/31 09:17:19;;;;;;;;;18.67;14.00;;;;;19.65;67.69;-19732.53;5015441;27;45290;-79
2022/10/31 09:19:44;;;;;;;;;15.33;12.67;;;;;19.66;67.60;-19732.94;5009329;28;46440;-79
2022/10/31 09:22:10;;;;;;;;;11.67;11.67;;;;;19.86;67.75;-19738.16;5011725;27;45433;-80
2022/10/31 09:24:35;;;;;;;;;19.67;15.00;;;;;19.96;67.16;-19740.69;4998607;27;45528;-80
2022/10/31 09:27:01;;;;;;;;;13.33;13.33;;;;;20.10;67.05;-19744.28;5035567;27;45528;-79
2022/10/31 09:29:26;;;;;;;;;19.00;15.00;;;;;20.06;66.74;-19743.22;4984807;27;45451;-79
2022/10/31 09:31:51;;;;;;;;;15.33;13.67;;;;;20.32;66.27;-19750.16;5007762;27;45471;-80
2022/10/31 09:34:17;;;;;;;;;19.00;15.67;;;;;20.16;66.30;-19746.00;4993537;28;46183;-80
2022/10/31 09:36:43;;;;;;;;;14.00;13.67;;;;;20.14;65.42;-19745.34;4987397;27;45327;-79
2022/10/31 09:39:09;;;;;;;;;16.00;13.67;;;;;20.56;65.62;-19756.41;4995283;27;45381;-79
2022/10/31 09:41:46;;;;;;;;;18.67;15.33;;;;;20.77;65.29;-19761.75;4994838;27;45512;-80
2022/10/31 09:44:26;;;;;;;;;15.33;14.00;;;;;20.89;64.32;-19764.81;4993291;28;45389;-80
2022/10/31 09:47:05;;;;;;;;;15.67;14.67;;;;;21.02;64.42;-19768.41;4994287;27;45527;-80
2022/10/31 09:49:54;;;;;;;;;19.33;15.67;;;;;21.14;63.98;-19771.34;4977181;28;45397;-80
2022/10/31 09:52:32;;;;;;;;;17.33;14.33;;;;;21.31;63.46;-19775.72;4998400;27;45282;-80
2022/10/31 09:55:23;;;;;;;;;16.00;16.00;;;;;21.45;63.38;-19779.59;4994515;27;45408;-80
2022/10/31 09:57:49;;;;;;;;;16.33;13.33;;;;;21.40;62.79;-19778.25;4994799;27;45373;-80
2022/10/31 10:00:20;;;;;;;;;16.00;13.67;;;;;21.67;62.89;-19785.31;4994828;28;45601;-80
2022/10/31 10:03:11;;;;;;;;;15.67;14.00;;;;;21.75;62.09;-19787.31;4993331;27;45393;-80
2022/10/31 10:05:45;;;;;;;;;14.67;14.67;;;;;21.86;61.85;-19790.25;4986587;27;46796;-80
2022/10/31 10:08:19;;;;;;;;;15.33;10.33;;;;;21.96;61.49;-19792.78;4993759;27;45463;-79
2022/10/31 10:10:54;;;;;;;;;15.00;15.00;;;;;22.09;61.68;-19796.09;4994820;28;45373;-79
2022/10/31 10:13:25;;;;;;;;;13.33;12.33;;;;;22.18;61.59;-19798.50;5016318;27;45479;-80
2022/10/31 10:16:00;;;;;;;;;13.67;9.00;;;;;22.28;60.68;-19801.16;5005365;27;47173;-79
2022/10/31 10:18:37;;;;;;;;;14.33;13.33;;;;;22.27;60.94;-19800.88;5032086;27;45479;-79
2022/10/31 10:21:32;;;;;;;;;14.00;12.33;;;;;22.17;60.85;-19798.09;5002067;27;45499;-80
2022/10/31 10:24:39;;;;;;;;;12.33;10.67;;;;;22.02;61.11;-19794.22;4993149;27;45527;-80
2022/10/31 10:27:22;;;;;;;;;8.67;8.33;;;;;21.91;61.00;-19791.56;4975110;27;46672;-80
2022/10/31 10:29:52;;;;;;;;;18.67;13.67;;;;;21.87;61.09;-19790.50;4990385;27;45493;-80
2022/10/31 10:32:24;;;;;;;;;14.67;12.00;;;;;21.78;61.23;-19787.97;4994166;27;45463;-79
2022/10/31 10:34:54;;;;;;;;;14.33;12.33;;;;;21.70;60.79;-19785.97;5027897;27;45402;-80
2022/10/31 10:37:49;;;;;;;;;9.00;8.00;;;;;21.73;61.27;-19786.78;4997533;27;45425;-80
2022/10/31 10:40:21;;;;;;;;;13.00;10.33;;;;;21.76;60.88;-19787.44;4989322;27;45535;-80
2022/10/31 10:48:39;;;;;;;;;12.33;12.33;;;;;21.83;60.87;-19789.31;4993848;27;45794;-79
2022/10/31 10:51:10;;;;;;;;;13.00;12.33;;;;;21.88;61.36;-19790.63;4998447;27;45411;-79
2022/10/31 10:54:15;;;;;;;;;9.00;9.00;;;;;21.85;60.80;-19789.84;4994682;27;45317;-79
2022/10/31 10:56:58;;;;;;;;;10.67;9.33;;;;;22.02;60.38;-19794.38;5000348;28;47174;-79
2022/10/31 10:59:24;;;;;;;;;10.00;9.00;;;;;22.02;59.88;-19794.22;5019638;28;45559;-79
2022/10/31 11:01:51;;;;;;;;;12.00;10.00;;;;;22.14;59.80;-19797.41;5014920;28;45454;-78
2022/10/31 11:04:28;;;;;;;;;9.33;8.67;;;;;22.47;59.04;-19806.06;5025863;28;45534;-84
2022/10/31 11:07:09;;;;;;;;;12.33;9.00;;;;;22.55;58.76;-19808.19;4998307;28;45679;-79
2022/10/31 11:09:36;;;;;;;;;13.00;10.33;;;;;22.71;58.87;-19812.19;5003333;28;45682;-78
2022/10/31 11:12:19;;;;;;;;;10.33;9.67;;;;;23.01;58.16;-19819.91;5017146;28;45423;-78
2022/10/31 11:15:01;;;;;;;;;9.67;9.67;;;;;23.12;58.10;-19822.81;4996938;28;45472;-78
2022/10/31 11:17:31;;;;;;;;;13.33;12.67;;;;;22.95;57.95;-19818.56;5015395;28;45664;-77
2022/10/31 11:20:25;;;;;;;;;14.33;12.00;;;;;23.20;57.90;-19824.81;5016335;28;45543;-77
2022/10/31 11:23:01;;;;;;;;;11.50;8.75;;;;;23.99;55.77;-19845.38;5017316;28;45423;-77
2022/10/31 11:25:27;;;;;;;;;12.00;11.33;;;;;24.57;54.37;-19860.50;5014549;28;45694;-77
2022/10/31 11:28:00;;;;;;;;;9.50;8.75;;;;;25.04;53.78;-19872.56;5019413;28;45579;-77
2022/10/31 11:30:26;;;;;;;;;9.25;8.25;;;;;25.37;53.15;-19881.03;5022091;28;45465;-77